createdAt,value
2023-01-01T10:14:29.643Z,71.20
2023-01-01T10:16:37.720Z,71.80
2023-01-01T10:18:43.606Z,62.00
2023-01-01T10:20:52.267Z,59.80
2023-01-01T10:23:00.048Z,61.30
2023-01-01T10:25:07.549Z,63.00
2023-01-01T10:27:21.143Z,61.20
2023-01-01T10:29:31.229Z,59.60
2023-01-01T10:31:36.784Z,61.60
2023-01-01T10:33:40.177Z,62.70
2023-01-01T10:35:46.931Z,60.80
2023-01-01T10:37:52.844Z,61.50
2023-01-01T10:39:56.609Z,61.70
2023-01-01T10:42:00.920Z,59.50
2023-01-01T10:44:04.410Z,61.10
2023-01-01T10:46:13.673Z,59.90
2023-01-01T10:48:19.415Z,60.60
2023-01-01T10:50:22.670Z,65.00
2023-01-01T10:52:31.770Z,79.80
2023-01-01T10:54:37.296Z,79.90
2023-01-01T10:56:43.464Z,52.00
2023-01-01T10:58:48.058Z,51.90
2023-01-01T11:00:59.712Z,53.20
2023-01-01T11:03:17.539Z,54.40
2023-01-01T11:05:22.842Z,56.00
2023-01-01T11:07:30.572Z,55.70
2023-01-01T11:09:37.114Z,57.00
2023-01-01T11:11:45.065Z,57.20
2023-01-01T11:13:51.682Z,56.10
2023-01-01T11:15:55.125Z,55.70
2023-01-01T11:18:05.453Z,57.00
2023-01-01T11:20:20.959Z,56.90
2023-01-01T11:22:39.610Z,55.60
2023-01-01T11:24:42.984Z,56.00
2023-01-01T11:26:52.225Z,55.20
2023-01-01T11:29:02.882Z,56.00
2023-01-01T11:31:16.917Z,56.10
2023-01-01T11:33:20.277Z,55.10
2023-01-01T11:35:27.885Z,55.00
2023-01-01T11:37:34.205Z,56.80
2023-01-01T11:39:38.542Z,55.40
2023-01-01T11:41:44.492Z,55.40
2023-01-01T11:43:50.242Z,55.50
2023-01-01T11:45:55.949Z,55.70
2023-01-01T11:48:02.969Z,55.80
2023-01-01T11:50:20.709Z,55.70
2023-01-01T11:52:50.949Z,55.40
2023-01-01T11:54:55.330Z,55.90
2023-01-01T11:57:05.890Z,55.60
2023-01-01T11:59:16.858Z,56.30
2023-01-01T12:01:26.899Z,55.20
2023-01-01T12:03:34.716Z,56.50
2023-01-01T12:05:46.020Z,57.90
2023-01-01T12:07:51.839Z,59.90
2023-01-01T12:10:01.602Z,58.50
2023-01-01T12:12:09.810Z,58.30
2023-01-01T12:14:20.376Z,57.00
2023-01-01T12:16:28.459Z,56.90
2023-01-01T12:18:38.387Z,56.30
2023-01-01T12:20:47.641Z,57.10
2023-01-01T12:22:55.202Z,57.70
2023-01-01T12:24:59.422Z,58.00
2023-01-01T12:27:17.454Z,57.70
2023-01-01T12:29:37.042Z,59.20
2023-01-01T12:31:49.985Z,60.90
2023-01-01T12:34:05.847Z,61.90
2023-01-01T12:36:21.098Z,62.60
2023-01-01T12:38:42.500Z,60.80
2023-01-01T12:40:52.870Z,60.20
2023-01-01T12:43:03.711Z,62.60
2023-01-01T12:45:30.669Z,60.50
2023-01-01T12:47:45.259Z,60.50
2023-01-01T12:50:01.649Z,61.60
2023-01-01T12:52:15.375Z,63.40
2023-01-01T12:54:52.373Z,67.30
2023-01-01T12:57:01.890Z,73.90
2023-01-01T12:59:10.893Z,71.70
2023-01-01T13:01:19.220Z,70.30
2023-01-01T13:03:26.517Z,66.30
2023-01-01T13:05:41.420Z,64.30
2023-01-01T13:07:49.875Z,65.00
2023-01-01T13:09:54.997Z,66.20
2023-01-01T13:12:02.738Z,77.30
2023-01-01T13:14:06.277Z,67.40
2023-01-01T13:16:12.732Z,59.90
2023-01-01T13:18:23.868Z,66.30
2023-01-01T13:20:27.513Z,65.00
2023-01-01T13:22:43.041Z,58.40
2023-01-01T13:27:11.771Z,63.10
2023-01-01T13:29:43.504Z,59.50
2023-01-01T13:32:05.520Z,61.80
2023-01-01T13:38:46.893Z,65.10
2023-01-01T13:40:53.125Z,62.40
2023-01-01T13:43:17.229Z,65.50
2023-01-01T13:46:09.953Z,66.00
2023-01-01T13:48:09.863Z,58.10
2023-01-01T13:50:19.472Z,57.50
2023-01-01T13:52:51.275Z,56.90
2023-01-01T13:55:20.286Z,66.60
2023-01-01T13:57:46.907Z,50.20
2023-01-01T14:00:01.828Z,50.90
2023-01-01T14:02:22.453Z,53.20
2023-01-01T14:04:41.058Z,54.10
2023-01-01T14:06:46.266Z,56.10
2023-01-01T14:09:03.102Z,57.70
2023-01-01T14:11:20.592Z,58.80
2023-01-01T14:13:29.807Z,62.40
2023-01-01T14:15:38.782Z,66.30
2023-01-01T14:17:45.070Z,68.30
2023-01-01T14:19:48.255Z,69.60
2023-01-01T14:21:52.401Z,73.60
2023-01-01T14:23:58.729Z,75.10
2023-01-01T14:26:04.064Z,77.60
2023-01-01T14:28:14.077Z,79.00
2023-01-01T14:30:19.092Z,81.60
2023-01-01T14:32:27.492Z,83.50
2023-01-01T14:34:32.721Z,85.60
2023-01-01T14:36:35.972Z,88.00
2023-01-01T14:38:45.204Z,90.00
2023-01-01T14:40:48.594Z,91.20
2023-01-01T14:42:56.034Z,92.50
2023-01-01T14:44:59.318Z,93.60
2023-01-01T14:47:03.125Z,95.80
2023-01-01T14:49:11.027Z,96.50
2023-01-01T14:51:16.474Z,98.70
2023-01-01T14:53:25.079Z,99.90
2023-01-01T14:55:33.159Z,99.90
2023-01-01T14:57:38.618Z,99.90
2023-01-01T14:59:47.810Z,99.90
2023-01-01T15:02:01.821Z,99.90
2023-01-01T15:04:17.038Z,99.90
2023-01-01T15:06:20.226Z,99.90
2023-01-01T15:08:25.643Z,99.90
2023-01-01T15:10:29.647Z,99.90
2023-01-01T15:12:37.428Z,99.90
2023-01-01T15:14:42.750Z,99.90
2023-01-01T15:16:46.076Z,99.90
2023-01-01T15:18:51.112Z,99.90
2023-01-01T15:20:56.777Z,99.90
2023-01-01T15:23:06.425Z,99.90
2023-01-01T15:25:15.840Z,99.90
2023-01-01T15:27:25.302Z,99.90
2023-01-01T15:29:31.958Z,99.90
2023-01-01T15:31:37.802Z,99.90
2023-01-01T15:33:41.355Z,99.90
2023-01-01T15:35:49.014Z,99.90
2023-01-01T15:37:57.411Z,99.90
2023-01-01T15:40:02.770Z,99.90
2023-01-01T15:42:23.772Z,99.90
2023-01-01T15:44:29.210Z,99.90
2023-01-01T15:46:33.531Z,99.90
2023-01-01T15:48:38.895Z,99.90
2023-01-01T15:50:56.725Z,99.90
2023-01-01T15:53:05.242Z,99.90
2023-01-01T15:55:14.729Z,99.90
2023-01-01T15:57:20.760Z,99.90
2023-01-01T15:59:28.148Z,99.90
2023-01-01T16:01:34.140Z,99.90
2023-01-01T16:03:38.893Z,99.90
2023-01-01T16:05:48.031Z,99.90
2023-01-01T16:08:01.225Z,99.90
2023-01-01T16:10:04.629Z,99.90
2023-01-01T16:12:10.334Z,99.90
2023-01-01T16:14:13.726Z,99.90
2023-01-01T16:16:34.776Z,99.90
2023-01-01T16:18:39.709Z,99.90
2023-01-01T16:20:43.000Z,99.90
2023-01-01T16:22:46.598Z,99.90
2023-01-01T16:24:51.090Z,99.90
2023-01-01T16:26:54.370Z,99.90
2023-01-01T16:28:57.645Z,99.90
2023-01-01T16:31:00.896Z,99.90
2023-01-01T16:33:05.653Z,99.90
2023-01-01T16:35:13.724Z,99.90
2023-01-01T16:37:22.688Z,99.90
2023-01-01T16:39:26.208Z,99.90
2023-01-01T16:41:30.797Z,99.90
2023-01-01T16:43:34.093Z,99.90
2023-01-01T16:45:37.583Z,99.90
2023-01-01T16:47:40.884Z,99.90
2023-01-01T16:49:44.679Z,99.90
2023-01-01T16:51:47.892Z,99.90
2023-01-01T16:53:51.255Z,99.90
2023-01-01T16:55:55.081Z,99.90
2023-01-01T16:58:29.596Z,99.90
2023-01-01T17:00:22.945Z,99.90
2023-01-01T17:02:26.373Z,99.90
2023-01-01T17:04:31.616Z,99.90
2023-01-01T17:06:35.125Z,99.90
2023-01-01T17:08:39.477Z,99.90
2023-01-01T17:10:42.768Z,99.90
2023-01-01T17:12:46.384Z,99.90
2023-01-01T17:14:50.918Z,99.90
2023-01-01T17:16:56.473Z,99.90
2023-01-01T17:19:17.090Z,99.90
2023-01-01T17:21:20.824Z,99.90
2023-01-01T17:23:24.014Z,99.90
2023-01-01T17:25:27.198Z,99.90
2023-01-01T17:27:30.437Z,99.90
2023-01-01T17:29:33.625Z,99.90
2023-01-01T17:31:38.332Z,99.90
2023-01-01T17:33:42.202Z,99.90
2023-01-01T17:35:45.392Z,99.90
2023-01-01T17:37:48.923Z,99.90
2023-01-01T17:39:52.308Z,99.90
2023-01-01T17:41:57.120Z,99.90
2023-01-01T17:44:00.542Z,99.90
2023-01-01T17:46:05.982Z,99.90
2023-01-01T17:48:10.668Z,99.90
2023-01-01T17:50:13.860Z,99.90
2023-01-01T17:52:17.191Z,99.90
2023-01-01T17:54:20.516Z,99.90
2023-01-01T17:56:25.014Z,99.90
2023-01-01T17:58:35.004Z,99.90
2023-01-01T18:00:38.805Z,99.90
2023-01-01T18:02:42.488Z,99.90
2023-01-01T18:04:48.086Z,99.90
2023-01-01T18:06:54.620Z,99.90
2023-01-01T18:08:59.438Z,99.90
2023-01-01T18:11:03.242Z,99.90
2023-01-01T18:13:06.533Z,99.90
2023-01-01T18:15:10.660Z,99.90
2023-01-01T18:17:14.190Z,99.90
2023-01-01T18:19:17.523Z,99.90
2023-01-01T18:21:24.265Z,99.90
2023-01-01T18:23:30.867Z,99.90
2023-01-01T18:25:34.113Z,99.90
2023-01-01T18:27:37.601Z,99.90
2023-01-01T18:29:40.765Z,99.90
2023-01-01T18:31:44.090Z,99.90
2023-01-01T18:33:47.956Z,99.90
2023-01-01T18:35:51.169Z,99.90
2023-01-01T18:37:55.828Z,99.90
2023-01-01T18:40:00.556Z,99.90
2023-01-01T18:42:18.997Z,99.90
2023-01-01T18:44:23.739Z,99.90
2023-01-01T18:46:27.183Z,99.90
2023-01-01T18:48:30.425Z,99.90
2023-01-01T18:50:35.973Z,99.90
2023-01-01T18:52:39.237Z,99.90
2023-01-01T18:54:44.501Z,99.90
2023-01-01T18:56:48.857Z,99.90
2023-01-01T18:58:56.397Z,99.90
2023-01-01T19:01:01.269Z,99.90
2023-01-01T19:03:12.666Z,99.90
2023-01-01T19:05:19.714Z,99.90
2023-01-01T19:07:23.160Z,99.90
2023-01-01T19:09:27.061Z,99.90
2023-01-01T19:11:32.105Z,99.90
2023-01-01T19:13:36.950Z,99.90
2023-01-01T19:15:40.158Z,99.90
2023-01-01T19:17:43.529Z,99.90
2023-01-01T19:19:47.609Z,99.90
2023-01-01T19:21:52.535Z,99.90
2023-01-01T19:23:58.210Z,99.90
2023-01-01T19:26:04.564Z,99.90
2023-01-01T19:28:42.549Z,99.90
2023-01-01T19:30:46.757Z,99.90
2023-01-01T19:32:50.166Z,99.90
2023-01-01T19:34:53.594Z,99.90
2023-01-01T19:36:57.041Z,99.90
2023-01-01T19:39:00.234Z,99.90
2023-01-01T19:41:03.800Z,99.90
2023-01-01T19:43:10.086Z,99.90
2023-01-01T19:45:15.016Z,99.90
2023-01-01T19:47:18.303Z,99.90
2023-01-01T19:49:21.543Z,99.90
2023-01-01T19:51:25.495Z,99.90
2023-01-01T19:53:28.894Z,99.90
2023-01-01T19:55:32.435Z,99.90
2023-01-01T19:57:36.008Z,99.90
2023-01-01T19:59:39.281Z,99.90
2023-01-01T20:01:44.205Z,99.90
2023-01-01T20:03:56.782Z,99.90
2023-01-01T20:06:00.716Z,99.90
2023-01-01T20:08:04.306Z,99.90
2023-01-01T20:10:08.212Z,99.90
2023-01-01T20:12:11.526Z,99.90
2023-01-01T20:14:14.916Z,99.90
2023-01-01T20:16:18.213Z,99.90
2023-01-01T20:18:23.115Z,99.90
2023-01-01T20:20:26.716Z,99.90
2023-01-01T20:22:29.099Z,99.90
2023-01-01T20:24:32.477Z,99.90
2023-01-01T20:26:35.769Z,99.90
2023-01-01T20:28:56.464Z,99.90
2023-01-01T20:30:59.810Z,99.90
2023-01-01T20:33:02.994Z,99.90
2023-01-01T20:35:08.129Z,99.90
2023-01-01T20:37:28.844Z,99.90
2023-01-01T20:39:32.188Z,99.90
2023-01-01T20:41:35.764Z,99.90
2023-01-01T20:43:39.159Z,99.90
2023-01-01T20:45:42.486Z,99.90
2023-01-01T20:47:45.861Z,99.90
2023-01-01T20:49:49.269Z,99.90
2023-01-01T20:51:54.768Z,99.90
2023-01-01T20:53:58.080Z,99.90
2023-01-01T20:56:01.350Z,99.90
2023-01-01T20:58:04.600Z,99.90
2023-01-01T21:00:09.409Z,99.90
2023-01-01T21:02:13.637Z,99.90
2023-01-01T21:04:17.505Z,99.90
2023-01-01T21:06:24.562Z,99.90
2023-01-01T21:08:29.590Z,99.90
2023-01-01T21:10:32.913Z,99.90
2023-01-01T21:12:38.011Z,99.90
2023-01-01T21:14:41.199Z,99.90
2023-01-01T21:16:46.082Z,99.90
2023-01-01T21:18:50.239Z,99.90
2023-01-01T21:20:53.483Z,99.90
2023-01-01T21:23:00.213Z,99.90
2023-01-01T21:25:49.924Z,99.90
2023-01-01T21:27:39.864Z,99.90
2023-01-01T21:29:47.605Z,99.90
2023-01-01T21:31:57.489Z,99.90
2023-01-01T21:34:00.849Z,99.90
2023-01-01T21:36:14.475Z,99.90
2023-01-01T21:38:22.761Z,99.90
2023-01-01T21:40:39.849Z,99.90
2023-01-01T21:42:43.082Z,99.90
2023-01-01T21:44:48.437Z,99.90
2023-01-01T21:46:58.291Z,99.90
2023-01-01T21:49:07.608Z,99.90
2023-01-01T21:51:20.257Z,99.90
2023-01-01T21:53:25.537Z,99.90
2023-01-01T21:55:49.564Z,99.90
2023-01-01T21:58:20.952Z,99.90
2023-01-01T22:00:24.668Z,99.90
2023-01-01T22:02:36.645Z,99.90
2023-01-01T22:04:43.148Z,99.90
2023-01-01T22:06:48.461Z,99.90
2023-01-01T22:08:51.644Z,99.90
2023-01-01T22:10:57.292Z,99.90
2023-01-01T22:13:02.389Z,99.90
2023-01-01T22:15:31.522Z,99.90
2023-01-01T22:17:38.233Z,99.90
2023-01-01T22:19:42.604Z,99.90
2023-01-01T22:21:46.554Z,99.90
2023-01-01T22:23:50.098Z,99.90
2023-01-01T22:25:53.749Z,99.90
2023-01-01T22:27:57.456Z,99.90
2023-01-01T22:30:32.349Z,99.90
2023-01-01T22:32:36.687Z,99.90
2023-01-01T22:34:39.982Z,99.90
2023-01-01T22:36:43.238Z,99.90
2023-01-01T22:38:46.774Z,99.90
2023-01-01T22:40:51.866Z,99.90
2023-01-01T22:42:56.131Z,99.90
2023-01-01T22:45:00.831Z,99.90
2023-01-01T22:47:06.903Z,99.90
2023-01-01T22:49:19.713Z,99.90
2023-01-01T22:51:27.322Z,99.90
2023-01-01T22:53:30.764Z,99.90
2023-01-01T22:55:34.132Z,99.90
2023-01-01T22:57:37.576Z,99.90
2023-01-01T22:59:40.897Z,99.90
2023-01-01T23:01:44.236Z,99.90
2023-01-01T23:03:48.963Z,99.90
2023-01-01T23:05:53.559Z,99.90
2023-01-01T23:07:57.075Z,99.90
2023-01-01T23:10:01.626Z,99.90
2023-01-01T23:12:05.558Z,99.90
2023-01-01T23:14:26.155Z,99.90
2023-01-01T23:16:29.375Z,99.90
2023-01-01T23:18:34.490Z,99.90
2023-01-01T23:20:39.183Z,99.90
2023-01-01T23:22:45.382Z,99.90
2023-01-01T23:24:48.657Z,99.90
2023-01-01T23:26:53.883Z,99.90
2023-01-01T23:28:58.002Z,99.90
2023-01-01T23:31:03.312Z,99.90
2023-01-01T23:33:06.992Z,99.90
2023-01-01T23:35:11.027Z,99.90
2023-01-01T23:37:17.064Z,99.90
2023-01-01T23:39:20.294Z,99.90
2023-01-01T23:41:23.738Z,99.90
2023-01-01T23:43:27.045Z,99.90
2023-01-01T23:45:30.622Z,99.90
2023-01-01T23:47:34.083Z,99.90
2023-01-01T23:49:37.662Z,99.90
2023-01-01T23:51:40.901Z,99.90
2023-01-01T23:53:45.864Z,99.90
2023-01-01T23:55:49.306Z,99.90
2023-01-01T23:57:52.663Z,99.90
2023-01-01T23:59:55.853Z,99.90
